createdAt,value
2023-02-27T00:03:05.341Z,13.72
2023-02-27T00:07:05.505Z,13.74
2023-02-27T00:11:05.703Z,13.73
2023-02-27T00:15:05.902Z,13.72
2023-02-27T00:19:06.096Z,13.71
2023-02-27T00:23:06.309Z,13.69
2023-02-27T00:27:06.493Z,13.69
2023-02-27T00:31:06.817Z,13.68
2023-02-27T00:35:06.890Z,13.67
2023-02-27T00:39:07.117Z,13.69
2023-02-27T00:43:07.294Z,13.69
2023-02-27T00:47:07.482Z,13.69
2023-02-27T00:51:07.728Z,13.68
2023-02-27T00:55:07.908Z,13.67
2023-02-27T00:59:08.104Z,13.68
2023-02-27T01:03:08.279Z,13.67
2023-02-27T01:07:08.545Z,13.67
2023-02-27T01:11:08.620Z,13.65
2023-02-27T01:15:08.883Z,13.63
2023-02-27T01:19:09.077Z,13.61
2023-02-27T01:23:09.272Z,13.59
2023-02-27T01:27:09.250Z,13.54
2023-02-27T01:31:09.204Z,13.53
2023-02-27T01:35:09.166Z,13.54
2023-02-27T01:39:09.156Z,13.54
2023-02-27T01:43:09.085Z,13.53
2023-02-27T01:47:09.042Z,13.54
2023-02-27T01:51:08.997Z,13.55
2023-02-27T01:55:08.982Z,13.56
2023-02-27T01:59:08.907Z,13.56
2023-02-27T02:03:09.047Z,13.55
2023-02-27T02:07:09.309Z,13.55
2023-02-27T02:11:09.217Z,13.54
2023-02-27T02:15:09.190Z,13.52
2023-02-27T02:19:09.164Z,13.50
2023-02-27T02:23:09.126Z,13.48
2023-02-27T02:27:09.070Z,13.48
2023-02-27T02:31:09.147Z,13.47
2023-02-27T02:35:09.006Z,13.45
2023-02-27T02:39:08.965Z,13.44
2023-02-27T02:43:08.925Z,13.43
2023-02-27T02:47:08.881Z,13.41
2023-02-27T02:51:08.835Z,13.43
2023-02-27T02:55:08.842Z,13.40
2023-02-27T02:59:08.996Z,13.41
2023-02-27T03:03:09.181Z,13.38
2023-02-27T03:07:09.368Z,13.38
2023-02-27T03:11:09.530Z,13.36
2023-02-27T03:15:09.730Z,13.34
2023-02-27T03:19:09.720Z,13.32
2023-02-27T03:23:09.653Z,13.31
2023-02-27T03:27:09.626Z,13.31
2023-02-27T03:31:10.323Z,13.30
2023-02-27T03:35:09.532Z,13.28
2023-02-27T03:39:09.525Z,13.26
2023-02-27T03:43:09.518Z,13.23
2023-02-27T03:47:09.445Z,13.22
2023-02-27T03:51:09.405Z,13.21
2023-02-27T03:55:09.361Z,13.20
2023-02-27T03:59:09.343Z,13.20
2023-02-27T04:03:09.506Z,13.19
2023-02-27T04:07:09.373Z,13.19
2023-02-27T04:11:09.359Z,13.19
2023-02-27T04:15:09.313Z,13.18
2023-02-27T04:19:09.282Z,13.17
2023-02-27T04:23:09.266Z,13.17
2023-02-27T04:27:09.221Z,13.18
2023-02-27T04:31:09.243Z,13.19
2023-02-27T04:35:09.189Z,13.20
2023-02-27T04:39:09.100Z,13.19
2023-02-27T04:43:09.062Z,13.18
2023-02-27T04:47:09.064Z,13.16
2023-02-27T04:51:11.221Z,13.16
2023-02-27T04:55:09.064Z,13.16
2023-02-27T04:59:09.257Z,13.16
2023-02-27T05:03:09.214Z,13.18
2023-02-27T05:07:09.168Z,13.18
2023-02-27T05:11:09.146Z,13.17
2023-02-27T05:15:09.133Z,13.17
2023-02-27T05:19:09.078Z,13.18
2023-02-27T05:23:09.045Z,13.20
2023-02-27T05:27:09.021Z,13.20
2023-02-27T05:31:08.954Z,13.20
2023-02-27T05:35:08.928Z,13.17
2023-02-27T05:39:08.947Z,13.17
2023-02-27T05:43:08.939Z,13.18
2023-02-27T05:47:08.822Z,13.19
2023-02-27T05:51:08.822Z,13.18
2023-02-27T05:55:08.795Z,13.24
2023-02-27T05:59:08.738Z,13.32
2023-02-27T06:03:08.741Z,13.37
2023-02-27T06:07:08.737Z,13.42
2023-02-27T06:11:08.612Z,13.43
2023-02-27T06:15:08.598Z,13.45
2023-02-27T06:19:08.638Z,13.48
2023-02-27T06:23:08.811Z,13.51
2023-02-27T06:27:08.936Z,13.56
2023-02-27T06:31:09.261Z,13.61
2023-02-27T06:35:09.252Z,13.65
2023-02-27T06:39:09.300Z,13.75
2023-02-27T06:43:09.344Z,13.94
2023-02-27T06:47:09.801Z,14.18
2023-02-27T06:51:09.812Z,14.52
2023-02-27T06:55:10.303Z,14.89
2023-02-27T06:59:10.283Z,15.18
2023-02-27T07:03:09.881Z,15.41
2023-02-27T07:07:34.672Z,15.57
2023-02-27T07:11:10.819Z,15.72
2023-02-27T07:15:09.778Z,15.84
2023-02-27T07:19:10.320Z,15.93
2023-02-27T07:23:09.695Z,16.04
2023-02-27T07:27:09.639Z,16.17
2023-02-27T07:31:09.863Z,16.28
2023-02-27T07:35:09.591Z,16.39
2023-02-27T07:39:09.586Z,16.50
2023-02-27T07:43:09.517Z,16.60
2023-02-27T07:47:09.786Z,16.67
2023-02-27T07:51:09.832Z,16.77
2023-02-27T07:55:09.443Z,16.82
2023-02-27T07:59:09.409Z,16.88
2023-02-27T08:03:09.854Z,16.96
2023-02-27T08:07:09.309Z,17.00
2023-02-27T08:11:09.322Z,17.08
2023-02-27T08:15:09.218Z,17.10
2023-02-27T08:19:09.223Z,17.13
2023-02-27T08:23:09.182Z,17.18
2023-02-27T08:27:09.109Z,17.26
2023-02-27T08:31:09.213Z,17.29
2023-02-27T08:35:09.411Z,17.36
2023-02-27T08:39:09.599Z,17.42
2023-02-27T08:43:09.840Z,17.54
2023-02-27T08:47:09.804Z,17.54
2023-02-27T08:51:10.317Z,17.55
2023-02-27T08:55:10.016Z,17.58
2023-02-27T08:59:10.341Z,17.60
2023-02-27T09:03:10.273Z,17.63
2023-02-27T09:07:10.426Z,17.64
2023-02-27T09:11:10.545Z,17.65
2023-02-27T09:15:10.648Z,17.65
2023-02-27T09:19:10.786Z,17.67
2023-02-27T09:23:10.858Z,17.68
2023-02-27T09:27:11.336Z,17.68
2023-02-27T09:31:11.063Z,17.69
2023-02-27T09:35:11.176Z,17.69
2023-02-27T09:39:11.250Z,17.78
2023-02-27T09:43:11.387Z,17.82
2023-02-27T09:47:11.334Z,17.88
2023-02-27T09:51:11.857Z,17.99
2023-02-27T09:55:11.835Z,18.07
2023-02-27T09:59:11.539Z,18.12
2023-02-27T10:03:11.887Z,18.16
2023-02-27T10:07:11.445Z,18.20
2023-02-27T10:11:11.401Z,18.22
2023-02-27T10:15:11.367Z,18.30
2023-02-27T10:19:11.365Z,18.38
2023-02-27T10:23:11.337Z,18.50
2023-02-27T10:27:11.272Z,18.55
2023-02-27T10:31:11.294Z,18.55
2023-02-27T10:35:11.374Z,18.58
2023-02-27T10:39:11.156Z,18.61
2023-02-27T10:43:11.393Z,18.63
2023-02-27T10:47:11.098Z,18.62
2023-02-27T10:51:11.383Z,18.61
2023-02-27T10:55:11.313Z,18.64
2023-02-27T10:59:11.859Z,18.68
2023-02-27T11:03:11.523Z,18.73
2023-02-27T11:07:11.553Z,18.82
2023-02-27T11:11:11.610Z,18.80
2023-02-27T11:15:11.880Z,18.80
2023-02-27T11:19:13.440Z,18.80
2023-02-27T11:23:11.632Z,18.82
2023-02-27T11:27:11.880Z,18.85
2023-02-27T11:31:11.600Z,18.84
2023-02-27T11:35:11.894Z,18.84
2023-02-27T11:39:11.516Z,18.93
2023-02-27T11:43:11.887Z,18.90
2023-02-27T11:47:11.447Z,18.90
2023-02-27T11:51:11.897Z,18.86
2023-02-27T11:55:11.348Z,18.88
2023-02-27T11:59:11.346Z,18.88
2023-02-27T12:03:11.419Z,18.90
2023-02-27T12:07:11.396Z,18.91
2023-02-27T12:11:14.557Z,18.92
2023-02-27T12:15:11.196Z,18.92
2023-02-27T12:19:11.110Z,18.94
2023-02-27T12:23:11.105Z,18.97
2023-02-27T12:27:11.433Z,19.00
2023-02-27T12:31:11.056Z,19.09
2023-02-27T12:35:11.411Z,19.09
2023-02-27T12:39:10.936Z,19.09
2023-02-27T12:43:11.118Z,19.06
2023-02-27T12:47:10.887Z,18.95
2023-02-27T12:51:10.837Z,18.93
2023-02-27T12:55:10.778Z,18.93
2023-02-27T12:59:10.739Z,18.94
2023-02-27T13:03:10.713Z,18.94
2023-02-27T13:07:10.655Z,18.96
2023-02-27T13:11:10.681Z,19.01
2023-02-27T13:15:10.646Z,19.03
2023-02-27T13:19:10.580Z,19.07
2023-02-27T13:23:10.560Z,19.09
2023-02-27T13:27:10.509Z,19.10
2023-02-27T13:31:10.510Z,19.10
2023-02-27T13:35:10.419Z,19.09
2023-02-27T13:39:10.426Z,19.08
2023-02-27T13:43:10.479Z,19.06
2023-02-27T13:47:10.659Z,19.06
2023-02-27T13:51:10.697Z,19.07
2023-02-27T13:55:12.282Z,19.06
2023-02-27T13:59:10.960Z,19.06
2023-02-27T14:03:11.153Z,19.05
2023-02-27T14:07:11.199Z,19.06
2023-02-27T14:11:11.332Z,19.07
2023-02-27T14:15:11.497Z,19.07
2023-02-27T14:19:11.635Z,19.06
2023-02-27T14:23:11.752Z,19.06
2023-02-27T14:27:11.856Z,19.07
2023-02-27T14:31:12.057Z,19.07
2023-02-27T14:35:12.122Z,19.07
2023-02-27T14:39:12.269Z,19.07
2023-02-27T14:43:12.425Z,19.07
2023-02-27T14:47:12.568Z,19.06
2023-02-27T14:51:12.730Z,19.07
2023-02-27T14:55:12.912Z,19.06
2023-02-27T14:59:13.051Z,19.06
2023-02-27T15:03:13.217Z,19.06
2023-02-27T15:07:13.338Z,19.06
2023-02-27T15:11:13.979Z,19.05
2023-02-27T15:15:13.985Z,19.03
2023-02-27T15:19:13.876Z,19.02
2023-02-27T15:23:14.010Z,19.05
2023-02-27T15:27:14.136Z,19.05
2023-02-27T15:31:14.283Z,19.06
2023-02-27T15:35:14.388Z,19.07
2023-02-27T15:39:14.523Z,19.05
2023-02-27T15:43:14.645Z,19.06
2023-02-27T15:47:14.778Z,19.08
2023-02-27T15:51:14.898Z,19.08
2023-02-27T15:55:15.041Z,19.08
2023-02-27T15:59:15.121Z,19.09
2023-02-27T16:03:15.299Z,19.10
2023-02-27T16:07:15.352Z,19.11
2023-02-27T16:11:16.008Z,19.10
2023-02-27T16:15:15.634Z,19.11
2023-02-27T16:19:15.765Z,19.11
2023-02-27T16:23:15.906Z,19.12
2023-02-27T16:27:16.062Z,19.14
2023-02-27T16:31:16.240Z,19.14
2023-02-27T16:35:16.323Z,19.14
2023-02-27T16:39:16.373Z,19.14
2023-02-27T16:43:16.494Z,19.15
2023-02-27T16:47:16.668Z,19.13
2023-02-27T16:51:16.750Z,19.12
2023-02-27T16:55:16.934Z,19.12
2023-02-27T16:59:17.044Z,19.11
2023-02-27T17:03:17.189Z,19.12
2023-02-27T17:07:17.329Z,19.15
2023-02-27T17:11:17.496Z,19.14
2023-02-27T17:15:17.592Z,19.14
2023-02-27T17:19:17.725Z,19.14
2023-02-27T17:23:17.878Z,19.11
2023-02-27T17:27:18.112Z,19.08
2023-02-27T17:31:18.266Z,19.06
2023-02-27T17:35:18.438Z,19.07
2023-02-27T17:39:18.709Z,19.07
2023-02-27T17:43:18.835Z,19.05
2023-02-27T17:47:19.052Z,19.04
2023-02-27T17:51:19.249Z,19.05
2023-02-27T17:55:19.489Z,19.05
2023-02-27T17:59:19.668Z,19.03
2023-02-27T18:03:20.547Z,19.03
2023-02-27T18:07:19.618Z,19.04
2023-02-27T18:11:19.612Z,19.02
2023-02-27T18:15:19.535Z,18.98
2023-02-27T18:19:19.498Z,18.97
2023-02-27T18:23:19.486Z,18.95
2023-02-27T18:27:19.605Z,18.93
2023-02-27T18:31:19.833Z,18.91
2023-02-27T18:35:19.805Z,18.90
2023-02-27T18:39:19.746Z,18.87
2023-02-27T18:43:19.805Z,18.85
2023-02-27T18:47:19.689Z,18.84
2023-02-27T18:51:19.629Z,18.83
2023-02-27T18:55:19.611Z,18.82
2023-02-27T18:59:19.596Z,18.81
2023-02-27T19:03:19.617Z,18.81
2023-02-27T19:07:19.470Z,18.79
2023-02-27T19:11:19.493Z,18.79
2023-02-27T19:15:19.419Z,18.76
2023-02-27T19:19:19.418Z,18.76
2023-02-27T19:23:19.307Z,18.75
2023-02-27T19:27:19.304Z,18.74
2023-02-27T19:31:19.293Z,18.74
2023-02-27T19:35:19.263Z,18.73
2023-02-27T19:39:19.173Z,18.73
2023-02-27T19:43:19.147Z,18.72
2023-02-27T19:47:19.117Z,18.72
2023-02-27T19:51:19.064Z,18.71
2023-02-27T19:55:19.010Z,18.70
2023-02-27T19:59:19.007Z,18.70
2023-02-27T20:03:18.968Z,18.69
2023-02-27T20:07:19.001Z,18.68
2023-02-27T20:11:18.955Z,18.68
2023-02-27T20:15:18.900Z,18.67
2023-02-27T20:19:18.882Z,18.67
2023-02-27T20:23:18.825Z,18.67
2023-02-27T20:27:18.813Z,18.66
2023-02-27T20:31:18.781Z,18.66
2023-02-27T20:35:18.715Z,18.64
2023-02-27T20:39:18.696Z,18.64
2023-02-27T20:43:18.656Z,18.64
2023-02-27T20:47:18.633Z,18.64
2023-02-27T20:51:18.592Z,18.63
2023-02-27T20:55:18.584Z,18.63
2023-02-27T20:59:18.507Z,18.63
2023-02-27T21:03:18.469Z,18.63
2023-02-27T21:07:18.466Z,18.62
2023-02-27T21:11:18.406Z,18.62
2023-02-27T21:15:18.569Z,18.62
2023-02-27T21:19:18.754Z,18.61
2023-02-27T21:23:18.789Z,18.61
2023-02-27T21:27:18.959Z,18.60
2023-02-27T21:31:19.120Z,18.60
2023-02-27T21:35:19.102Z,18.60
2023-02-27T21:39:19.149Z,18.60
2023-02-27T21:43:19.244Z,18.59
2023-02-27T21:47:19.318Z,18.59
2023-02-27T21:51:33.094Z,18.59
2023-02-27T21:55:20.375Z,18.59
2023-02-27T21:59:19.351Z,18.59
2023-02-27T22:03:19.294Z,18.58
2023-02-27T22:07:19.269Z,18.58
2023-02-27T22:11:19.201Z,18.57
2023-02-27T22:15:19.341Z,18.56
2023-02-27T22:19:19.431Z,18.57
2023-02-27T22:23:19.548Z,18.57
2023-02-27T22:27:19.610Z,18.57
2023-02-27T22:31:19.747Z,18.56
2023-02-27T22:35:19.762Z,18.56
2023-02-27T22:39:19.950Z,18.56
2023-02-27T22:43:20.004Z,18.56
2023-02-27T22:47:20.073Z,18.56
2023-02-27T22:51:20.155Z,18.55
2023-02-27T22:55:20.257Z,18.55
2023-02-27T22:59:20.360Z,18.55
2023-02-27T23:03:20.490Z,18.55
2023-02-27T23:07:20.613Z,18.54
2023-02-27T23:11:20.714Z,18.54
2023-02-27T23:15:20.892Z,18.54
2023-02-27T23:19:20.918Z,18.53
2023-02-27T23:23:21.052Z,18.53
2023-02-27T23:27:26.225Z,18.54
2023-02-27T23:31:22.250Z,18.54
2023-02-27T23:35:21.071Z,18.53
2023-02-27T23:39:21.031Z,18.53
2023-02-27T23:43:21.077Z,18.54
2023-02-27T23:47:21.214Z,18.53
2023-02-27T23:51:21.319Z,18.53
2023-02-27T23:55:21.484Z,18.53
2023-02-27T23:59:21.603Z,18.53
